Flight Briefing for CPX229

Departure Arrival
Seattle-Tacoma International Airport (KSEA)
Click to view FAA NOTAMS
Ted Stevens Anchorage International Airport (PANC)
Click to view FAA NOTAMS
Departure Time Arrival Time
1730 UTC 2115 UTC
Aircraft Distance
B767-300BDSF 1257nm
Departure METAR Arrival METAR
KSEA 190753Z 11016G23KT 10SM CLR 17/M06 A3010 RMK AO2 SLP198 T01721061 402440067 PANC 190823Z 24010G19KT 10SM BKN047 OVC060 04/00 A2956 RMK AO2 PK WND 14031/0803 WSHFT 0803 T00440000
Suggested Route
BANGR9 ARRIE FOCHE PRYCE BKA LAIRE JOH WITTI4


View recent IFR Routes data
Notes



Charts and Procedures

Charts for KSEA
No chart available
Charts for PANC
No chart available

Windy.com Weather Map